Hong Xiang 2 — BYBA — position and weather

sailwx.info

Track history (hours):
 
Tides and Currents Weather Stations Pressure Air Temp Water Temp Dewpoint Dewpoint Depression Visibility Wind Speed Wind Dir Waves Ship Positions

Hong Xiang 2

Last reported at 2016-Jun-20 10:11 UTC. Time now 2016-Jun-29 21:50 UTC.
Position N 23°05' E 113°25'.
Warning: this ship's position is 9 days out of date.

Length 96 m; draft 4.8 m.

Type: Ship (hazmat cat A). MMSI: 413413000.

Date/timePositionNaut miles runAvg speedWind from/ knotsBaromVisibWave heightAir tempDewpointWater temp
2016-Jun-20 10:11N 23°05' E 113°25'0 0.1
2016-Jun-20 09:17N 23°05' E 113°25'0 0.0
2016-Jun-20 08:17N 23°05' E 113°25'  
2016-Jun-17 09:11N 23°05' E 113°24'1 1.1
2016-Jun-17 08:34N 23°05' E 113°25'8 7.8
2016-Jun-17 07:33N 22°60' E 113°31'9 9.1
2016-Jun-17 06:33N 22°51' E 113°34'  
2016-Jun-14 04:33N 23°13' E 116°50'1010.3
2016-Jun-14 03:33N 23°21' E 116°43'6 5.3
2016-Jun-14 02:29N 23°21' E 116°37'1 1.0
2016-Jun-14 01:34N 23°21' E 116°36'5 4.9
2016-Jun-14 00:33N 23°25' E 116°33'3 0.1
2016-Jun-12 08:16N 23°27' E 116°30'5 6.5
2016-Jun-12 07:32N 23°23' E 116°33'8 7.8
2016-Jun-12 06:33N 23°21' E 116°42'53 7.6
2016-Jun-11 23:33N 23°39' E 117°36'10 9.7
2016-Jun-11 22:33N 23°46' E 117°44'19 8.8
2016-Jun-11 20:21N 23°57' E 118°01'7 8.7
2016-Jun-11 19:31N 24°02' E 118°08'8 8.0
2016-Jun-11 18:33N 24°06' E 118°14'11 8.2
2016-Jun-11 17:11N 24°14' E 118°24'6 7.9
2016-Jun-11 16:28N 24°18' E 118°28'8 8.0
2016-Jun-11 15:27N 24°23' E 118°35'18 7.9
2016-Jun-11 13:11N 24°35' E 118°50'5 7.5
2016-Jun-11 12:30N 24°38' E 118°54'7 7.6
2016-Jun-11 11:33N 24°43' E 118°60'8 7.6
2016-Jun-11 10:33N 24°48' E 119°06'9 8.5
2016-Jun-11 09:28N 24°54' E 119°14'  
Track history (hours):
 
Tides and Currents Weather Stations Pressure Air Temp Water Temp Dewpoint Dewpoint Depression Visibility Wind Speed Wind Dir Waves Ship Positions

Hong Xiang 2

Last reported at 2016-Jun-20 10:11 UTC. Time now 2016-Jun-29 21:50 UTC.
Position N 23°05' E 113°25'.
Warning: this ship's position is 9 days out of date.

Length 96 m; draft 4.8 m.

Type: Ship (hazmat cat A). MMSI: 413413000.

Date/timePositionNaut miles runAvg speedWind from/ knotsBaromVisibWave heightAir tempDewpointWater temp
2016-Jun-20 10:11N 23°05' E 113°25'0 0.1
2016-Jun-20 09:17N 23°05' E 113°25'0 0.0
2016-Jun-20 08:17N 23°05' E 113°25'  
2016-Jun-17 09:11N 23°05' E 113°24'1 1.1
2016-Jun-17 08:34N 23°05' E 113°25'8 7.8
2016-Jun-17 07:33N 22°60' E 113°31'9 9.1
2016-Jun-17 06:33N 22°51' E 113°34'  
2016-Jun-14 04:33N 23°13' E 116°50'1010.3
2016-Jun-14 03:33N 23°21' E 116°43'6 5.3
2016-Jun-14 02:29N 23°21' E 116°37'1 1.0
2016-Jun-14 01:34N 23°21' E 116°36'5 4.9
2016-Jun-14 00:33N 23°25' E 116°33'3 0.1
2016-Jun-12 08:16N 23°27' E 116°30'5 6.5
2016-Jun-12 07:32N 23°23' E 116°33'8 7.8
2016-Jun-12 06:33N 23°21' E 116°42'53 7.6
2016-Jun-11 23:33N 23°39' E 117°36'10 9.7
2016-Jun-11 22:33N 23°46' E 117°44'19 8.8
2016-Jun-11 20:21N 23°57' E 118°01'7 8.7
2016-Jun-11 19:31N 24°02' E 118°08'8 8.0
2016-Jun-11 18:33N 24°06' E 118°14'11 8.2
2016-Jun-11 17:11N 24°14' E 118°24'6 7.9
2016-Jun-11 16:28N 24°18' E 118°28'8 8.0
2016-Jun-11 15:27N 24°23' E 118°35'18 7.9
2016-Jun-11 13:11N 24°35' E 118°50'5 7.5
2016-Jun-11 12:30N 24°38' E 118°54'7 7.6
2016-Jun-11 11:33N 24°43' E 118°60'8 7.6
2016-Jun-11 10:33N 24°48' E 119°06'9 8.5
2016-Jun-11 09:28N 24°54' E 119°14'  

Dump ship's entire track history